createdAt,value
2022-08-17T00:00:43.100Z,61.30
2022-08-17T00:03:13.579Z,60.40
2022-08-17T00:05:52.494Z,60.64
2022-08-17T00:08:23.824Z,60.97
2022-08-17T00:10:53.338Z,61.17
2022-08-17T00:13:27.823Z,60.36
2022-08-17T00:15:59.481Z,60.49
2022-08-17T00:19:06.829Z,59.77
2022-08-17T00:21:23.755Z,59.82
2022-08-17T00:23:54.413Z,59.85
2022-08-17T00:26:44.154Z,60.89
2022-08-17T00:29:19.521Z,61.67
2022-08-17T00:31:48.572Z,60.85
2022-08-17T00:34:16.907Z,60.56
2022-08-17T00:36:44.615Z,60.43
2022-08-17T00:39:12.532Z,60.09
2022-08-17T00:41:42.190Z,59.88
2022-08-17T00:44:12.317Z,60.91
2022-08-17T00:46:42.265Z,62.14
2022-08-17T00:49:11.728Z,62.82
2022-08-17T00:51:52.518Z,61.99
2022-08-17T00:54:27.279Z,62.17
2022-08-17T00:56:58.854Z,62.35
2022-08-17T00:59:32.068Z,62.81
2022-08-17T01:02:00.173Z,63.63
2022-08-17T01:04:31.323Z,62.66
2022-08-17T01:07:01.622Z,63.54
2022-08-17T01:09:31.469Z,63.72
2022-08-17T01:11:59.382Z,64.23
2022-08-17T01:14:27.079Z,63.41
2022-08-17T01:16:56.456Z,61.83
2022-08-17T01:19:30.782Z,62.71
2022-08-17T01:22:10.811Z,62.08
2022-08-17T01:24:44.039Z,63.83
2022-08-17T01:27:14.494Z,62.75
2022-08-17T01:29:46.203Z,63.72
2022-08-17T01:32:14.794Z,63.83
2022-08-17T01:34:43.615Z,63.66
2022-08-17T01:37:14.226Z,64.04
2022-08-17T01:39:54.240Z,62.78
2022-08-17T01:42:54.027Z,64.46
2022-08-17T01:45:26.750Z,65.38
2022-08-17T01:47:55.508Z,65.35
2022-08-17T01:50:30.238Z,65.00
2022-08-17T01:53:35.001Z,68.18
2022-08-17T01:56:09.260Z,65.92
2022-08-17T01:58:38.918Z,64.78
2022-08-17T02:01:08.965Z,64.80
2022-08-17T02:03:38.122Z,65.49
2022-08-17T02:06:11.991Z,63.60
2022-08-17T02:09:01.981Z,63.87
2022-08-17T02:11:33.649Z,63.82
2022-08-17T02:14:04.128Z,64.81
2022-08-17T02:16:37.565Z,64.22
2022-08-17T02:19:09.394Z,63.02
2022-08-17T02:21:37.652Z,62.68
2022-08-17T02:24:10.966Z,63.35
2022-08-17T02:26:39.266Z,62.57
2022-08-17T02:29:07.379Z,63.85
2022-08-17T02:31:35.687Z,65.07
2022-08-17T02:34:05.365Z,64.23
2022-08-17T02:36:34.569Z,63.85
2022-08-17T02:39:04.717Z,64.80
2022-08-17T02:41:33.228Z,63.04
2022-08-17T02:44:01.463Z,62.84
2022-08-17T02:46:30.536Z,62.63
2022-08-17T02:48:59.235Z,62.19
2022-08-17T02:51:27.330Z,62.51
2022-08-17T02:54:35.778Z,62.43
2022-08-17T02:56:44.026Z,62.53
2022-08-17T02:59:11.693Z,62.78
2022-08-17T03:01:39.422Z,63.50
2022-08-17T03:04:07.822Z,63.23
2022-08-17T03:06:35.775Z,63.01
2022-08-17T03:09:04.611Z,63.40
2022-08-17T03:11:32.793Z,63.40
2022-08-17T03:14:00.411Z,64.11
2022-08-17T03:16:28.554Z,65.90
2022-08-17T03:18:56.801Z,64.42
2022-08-17T03:21:24.573Z,64.19
2022-08-17T03:23:54.320Z,65.33
2022-08-17T03:26:22.709Z,65.03
2022-08-17T03:28:50.696Z,65.25
2022-08-17T03:31:18.500Z,66.07
2022-08-17T03:33:46.450Z,66.04
2022-08-17T03:36:14.328Z,66.30
2022-08-17T03:38:42.281Z,66.95
2022-08-17T03:41:11.313Z,65.44
2022-08-17T03:43:39.034Z,64.35
2022-08-17T03:46:28.615Z,65.89
2022-08-17T03:49:24.433Z,66.70
2022-08-17T03:52:11.832Z,65.97
2022-08-17T03:54:59.555Z,65.13
2022-08-17T03:57:29.215Z,65.57
2022-08-17T03:59:58.698Z,65.61
2022-08-17T04:02:31.959Z,64.56
2022-08-17T04:05:00.670Z,64.98
2022-08-17T04:07:31.423Z,67.01
2022-08-17T04:10:01.226Z,64.32
2022-08-17T04:12:42.656Z,64.08
2022-08-17T04:15:12.700Z,64.14
2022-08-17T04:17:41.106Z,64.52
2022-08-17T04:20:19.248Z,63.75
2022-08-17T04:23:19.878Z,61.87
2022-08-17T04:25:51.552Z,60.79
2022-08-17T04:28:20.282Z,60.74
2022-08-17T04:30:48.237Z,60.73
2022-08-17T04:33:19.603Z,61.17
2022-08-17T04:35:52.071Z,59.46
2022-08-17T04:38:24.495Z,59.37
2022-08-17T04:41:12.569Z,59.14
2022-08-17T04:43:43.025Z,58.73
2022-08-17T04:46:14.637Z,60.34
2022-08-17T04:48:45.961Z,62.05
2022-08-17T04:51:17.026Z,61.76
2022-08-17T04:53:54.120Z,63.14
2022-08-17T04:56:25.950Z,59.64
2022-08-17T04:58:56.240Z,58.60
2022-08-17T05:01:25.015Z,58.34
2022-08-17T05:03:56.276Z,59.30
2022-08-17T05:06:24.519Z,58.91
2022-08-17T05:08:52.569Z,56.49
2022-08-17T05:11:20.378Z,56.10
2022-08-17T05:13:52.072Z,54.49
2022-08-17T05:16:22.097Z,55.79
2022-08-17T05:18:51.080Z,57.08
2022-08-17T05:21:21.733Z,57.37
2022-08-17T05:23:56.197Z,61.39
2022-08-17T05:26:27.363Z,59.30
2022-08-17T05:29:00.321Z,58.15
2022-08-17T05:31:30.771Z,57.15
2022-08-17T05:33:59.307Z,55.84
2022-08-17T05:36:38.097Z,56.23
2022-08-17T05:39:16.934Z,54.94
2022-08-17T05:41:48.348Z,53.96
2022-08-17T05:44:17.153Z,54.57
2022-08-17T05:46:49.220Z,52.84
2022-08-17T05:49:24.431Z,53.55
2022-08-17T05:52:07.326Z,53.34
2022-08-17T05:54:53.692Z,52.39
2022-08-17T05:57:47.417Z,54.58
2022-08-17T06:00:37.370Z,52.48
2022-08-17T06:03:22.483Z,49.49
2022-08-17T06:05:51.500Z,49.12
2022-08-17T06:08:53.218Z,49.20
2022-08-17T06:11:39.039Z,50.20
2022-08-17T06:14:13.066Z,50.52
2022-08-17T06:16:46.502Z,48.70
2022-08-17T06:19:54.705Z,48.06
2022-08-17T06:22:28.564Z,47.88
2022-08-17T06:25:05.078Z,47.01
2022-08-17T06:27:43.214Z,47.35
2022-08-17T06:30:18.915Z,48.50
2022-08-17T06:32:49.512Z,47.29
2022-08-17T06:35:39.914Z,48.38
2022-08-17T06:38:37.234Z,50.65
2022-08-17T06:41:15.404Z,50.26
2022-08-17T06:43:50.762Z,50.42
2022-08-17T06:46:35.129Z,52.95
2022-08-17T06:49:14.099Z,50.26
2022-08-17T06:51:58.445Z,49.02
2022-08-17T06:55:00.405Z,49.03
2022-08-17T06:57:31.829Z,48.41
2022-08-17T07:00:13.697Z,48.78
2022-08-17T07:03:09.827Z,48.25
2022-08-17T07:05:46.201Z,48.48
2022-08-17T07:09:06.478Z,49.07
2022-08-17T07:11:49.259Z,50.90
2022-08-17T07:14:20.384Z,51.24
2022-08-17T07:16:53.663Z,51.65
2022-08-17T07:19:31.737Z,52.46
2022-08-17T07:22:02.264Z,52.45
2022-08-17T07:24:44.604Z,50.11
2022-08-17T07:27:27.625Z,49.61
2022-08-17T07:30:10.995Z,53.45
2022-08-17T07:32:45.245Z,50.35
2022-08-17T07:35:19.906Z,48.47
2022-08-17T07:37:54.203Z,48.05
2022-08-17T07:40:32.125Z,50.11
2022-08-17T07:43:21.926Z,46.70
2022-08-17T07:46:22.530Z,46.60
2022-08-17T07:48:53.884Z,47.74
2022-08-17T07:51:32.697Z,46.47
2022-08-17T07:54:14.439Z,47.42
2022-08-17T07:56:54.761Z,46.62
2022-08-17T07:59:33.595Z,44.84
2022-08-17T08:02:14.516Z,45.34
2022-08-17T08:05:06.681Z,44.80
2022-08-17T08:07:51.150Z,44.02
2022-08-17T08:10:27.091Z,44.70
2022-08-17T08:13:22.514Z,45.06
2022-08-17T08:15:56.992Z,44.55
2022-08-17T08:18:54.368Z,43.85
2022-08-17T08:21:37.965Z,45.32
2022-08-17T08:24:30.973Z,43.69
2022-08-17T08:27:27.328Z,43.10
2022-08-17T08:30:06.046Z,42.87
2022-08-17T08:32:59.334Z,42.51
2022-08-17T08:35:35.699Z,41.97
2022-08-17T08:38:25.485Z,41.67
2022-08-17T08:41:24.680Z,42.77
2022-08-17T08:44:13.436Z,42.28
2022-08-17T08:47:04.984Z,41.27
2022-08-17T08:50:03.387Z,41.66
2022-08-17T08:52:40.540Z,41.05
2022-08-17T08:55:28.831Z,40.74
2022-08-17T08:58:07.544Z,40.36
2022-08-17T09:00:59.449Z,40.95
2022-08-17T09:04:23.272Z,41.38
2022-08-17T09:07:26.224Z,41.75
2022-08-17T09:10:17.618Z,40.33
2022-08-17T09:12:53.392Z,41.46
2022-08-17T09:15:25.745Z,39.66
2022-08-17T09:19:01.700Z,39.17
2022-08-17T09:20:56.782Z,38.96
2022-08-17T09:24:12.900Z,37.90
2022-08-17T09:26:54.928Z,38.21
2022-08-17T09:29:25.563Z,37.97
2022-08-17T09:32:03.804Z,37.48
2022-08-17T09:34:48.529Z,38.51
2022-08-17T09:37:20.896Z,40.36
2022-08-17T09:40:02.360Z,38.23
2022-08-17T09:42:50.254Z,36.60
2022-08-17T09:45:32.644Z,37.66
2022-08-17T09:48:45.809Z,37.51
2022-08-17T09:51:30.381Z,37.79
2022-08-17T09:54:20.922Z,37.08
2022-08-17T09:57:28.754Z,36.98
2022-08-17T10:00:15.064Z,38.77
2022-08-17T10:02:54.480Z,38.51
2022-08-17T10:05:24.158Z,38.46
2022-08-17T10:07:56.311Z,37.41
2022-08-17T10:10:35.276Z,37.31
2022-08-17T10:13:41.587Z,36.40
2022-08-17T10:16:39.048Z,35.01
2022-08-17T10:19:33.028Z,37.05
2022-08-17T10:22:37.909Z,35.63
2022-08-17T10:25:56.487Z,34.81
2022-08-17T10:28:30.598Z,34.27
2022-08-17T10:31:33.725Z,32.91
2022-08-17T10:34:01.140Z,32.42
2022-08-17T10:36:41.515Z,32.38
2022-08-17T10:39:31.775Z,32.27
2022-08-17T10:42:14.309Z,31.59
2022-08-17T10:45:15.256Z,32.20
2022-08-17T10:48:21.255Z,32.38
2022-08-17T10:51:36.494Z,32.05
2022-08-17T10:54:07.738Z,32.55
2022-08-17T10:57:01.341Z,31.94
2022-08-17T10:59:36.256Z,31.31
2022-08-17T11:02:20.009Z,31.62
2022-08-17T11:05:19.151Z,31.04
2022-08-17T11:08:05.596Z,30.76
2022-08-17T11:10:55.422Z,30.53
2022-08-17T11:14:04.687Z,31.75
2022-08-17T11:16:48.108Z,30.21
2022-08-17T11:19:31.098Z,29.98
2022-08-17T11:22:23.434Z,31.13
2022-08-17T11:24:53.955Z,31.57
2022-08-17T11:27:31.736Z,31.71
2022-08-17T11:30:07.671Z,32.02
2022-08-17T11:32:47.356Z,31.20
2022-08-17T11:35:22.088Z,33.47
2022-08-17T11:37:56.098Z,32.31
2022-08-17T11:40:25.253Z,32.94
2022-08-17T11:43:13.569Z,32.77
2022-08-17T11:45:53.143Z,31.84
2022-08-17T11:49:05.939Z,32.12
2022-08-17T11:52:01.537Z,31.66
2022-08-17T11:54:48.073Z,31.33
2022-08-17T11:57:29.534Z,30.95
2022-08-17T12:00:11.076Z,31.07
2022-08-17T12:02:48.499Z,31.42
2022-08-17T12:05:17.018Z,30.50
2022-08-17T12:07:52.148Z,30.81
2022-08-17T12:10:31.794Z,30.61
2022-08-17T12:13:03.775Z,31.17
2022-08-17T12:15:37.436Z,30.35
2022-08-17T12:18:05.693Z,30.90
2022-08-17T12:20:40.060Z,31.07
2022-08-17T12:23:19.125Z,30.22
2022-08-17T12:25:56.887Z,30.20
2022-08-17T12:28:28.989Z,29.81
2022-08-17T12:31:01.429Z,29.54
2022-08-17T12:33:30.040Z,29.31
2022-08-17T12:36:03.228Z,29.62
2022-08-17T12:38:37.557Z,30.02
2022-08-17T12:41:25.835Z,30.20
2022-08-17T12:44:02.365Z,30.02
2022-08-17T12:46:45.679Z,29.72
2022-08-17T12:49:26.548Z,29.11
2022-08-17T12:52:02.879Z,28.66
2022-08-17T12:54:39.750Z,29.25
2022-08-17T12:57:26.771Z,28.98
2022-08-17T13:00:00.922Z,29.56
2022-08-17T13:02:40.551Z,28.90
2022-08-17T13:05:18.009Z,29.09
2022-08-17T13:07:46.692Z,29.13
2022-08-17T13:10:36.533Z,29.43
2022-08-17T13:13:23.387Z,28.02
2022-08-17T13:15:55.472Z,27.63
2022-08-17T13:18:55.787Z,28.06
2022-08-17T13:21:23.862Z,27.80
2022-08-17T13:24:17.291Z,27.73
2022-08-17T13:26:48.158Z,28.64
2022-08-17T13:29:26.087Z,27.95
2022-08-17T13:32:23.102Z,28.26
2022-08-17T13:35:11.912Z,28.62
2022-08-17T13:37:57.911Z,29.35
2022-08-17T13:40:31.235Z,28.48
2022-08-17T13:42:59.445Z,28.71
2022-08-17T13:45:34.926Z,28.49
2022-08-17T13:48:04.519Z,28.69
2022-08-17T13:50:32.505Z,29.39
2022-08-17T13:53:00.355Z,29.88
2022-08-17T13:55:31.330Z,28.85
2022-08-17T13:58:06.943Z,28.88
2022-08-17T14:00:36.979Z,28.24
2022-08-17T14:03:05.753Z,28.31
2022-08-17T14:05:38.193Z,28.35
2022-08-17T14:08:07.214Z,28.37
2022-08-17T14:10:36.571Z,29.32
2022-08-17T14:13:06.305Z,29.48
2022-08-17T14:15:53.956Z,29.07
2022-08-17T14:18:35.538Z,28.85
2022-08-17T14:21:10.680Z,29.33
2022-08-17T14:23:39.356Z,29.29
2022-08-17T14:26:07.140Z,28.87
2022-08-17T14:28:36.535Z,28.78
2022-08-17T14:31:06.252Z,29.48
2022-08-17T14:33:35.170Z,29.80
2022-08-17T14:36:03.851Z,29.29
2022-08-17T14:38:31.572Z,29.40
2022-08-17T14:40:59.328Z,29.29
2022-08-17T14:43:27.480Z,29.29
2022-08-17T14:45:55.209Z,29.86
2022-08-17T14:48:23.108Z,29.24
2022-08-17T14:50:51.077Z,28.51
2022-08-17T14:53:20.379Z,28.82
2022-08-17T14:55:50.649Z,29.10
2022-08-17T14:58:19.561Z,29.37
2022-08-17T15:00:49.795Z,28.57
2022-08-17T15:03:18.765Z,28.53
2022-08-17T15:05:46.906Z,28.29
2022-08-17T15:08:16.635Z,28.84
2022-08-17T15:10:44.891Z,28.82
2022-08-17T15:13:20.468Z,29.37
2022-08-17T15:15:49.068Z,28.49
2022-08-17T15:18:17.374Z,28.31
2022-08-17T15:20:47.484Z,27.68
2022-08-17T15:23:18.251Z,29.83
2022-08-17T15:25:48.202Z,30.46
2022-08-17T15:28:17.763Z,30.88
2022-08-17T15:30:45.815Z,30.62
2022-08-17T15:33:17.520Z,31.42
2022-08-17T15:35:45.665Z,29.32
2022-08-17T15:38:14.490Z,29.77
2022-08-17T15:40:48.766Z,29.25
2022-08-17T15:43:24.777Z,29.96
2022-08-17T15:46:19.502Z,31.86
2022-08-17T15:48:50.460Z,32.38
2022-08-17T15:51:33.354Z,31.88
2022-08-17T15:54:18.712Z,32.09
2022-08-17T15:56:50.659Z,31.48
2022-08-17T15:59:19.468Z,31.52
2022-08-17T16:03:05.677Z,31.94
2022-08-17T16:04:35.201Z,32.72
2022-08-17T16:07:05.931Z,33.19
2022-08-17T16:09:33.759Z,32.64
2022-08-17T16:12:21.697Z,32.78
2022-08-17T16:14:50.847Z,32.95
2022-08-17T16:17:39.901Z,32.66
2022-08-17T16:20:07.788Z,33.03
2022-08-17T16:22:42.421Z,31.55
2022-08-17T16:25:14.503Z,31.75
2022-08-17T16:27:43.484Z,31.15
2022-08-17T16:30:17.075Z,31.19
2022-08-17T16:32:47.039Z,31.59
2022-08-17T16:35:18.653Z,32.78
2022-08-17T16:37:46.912Z,32.32
2022-08-17T16:40:16.801Z,32.70
2022-08-17T16:42:48.471Z,33.44
2022-08-17T16:45:20.256Z,33.40
2022-08-17T16:47:51.287Z,33.67
2022-08-17T16:50:23.313Z,33.50
2022-08-17T16:52:51.152Z,33.38
2022-08-17T16:55:21.755Z,34.12
2022-08-17T16:57:50.986Z,33.76
2022-08-17T17:00:21.034Z,34.04
2022-08-17T17:02:49.730Z,34.76
2022-08-17T17:05:22.383Z,34.56
2022-08-17T17:08:01.222Z,35.26
2022-08-17T17:10:39.379Z,35.56
2022-08-17T17:13:25.452Z,35.84
2022-08-17T17:16:34.757Z,35.15
2022-08-17T17:19:06.724Z,34.85
2022-08-17T17:21:57.179Z,34.61
2022-08-17T17:25:01.450Z,35.44
2022-08-17T17:27:34.850Z,36.50
2022-08-17T17:30:15.212Z,36.96
2022-08-17T17:32:50.803Z,36.99
2022-08-17T17:35:53.980Z,36.26
2022-08-17T17:38:29.941Z,35.49
2022-08-17T17:41:05.698Z,35.50
2022-08-17T17:43:41.108Z,36.56
2022-08-17T17:46:35.401Z,37.70
2022-08-17T17:49:04.637Z,38.57
2022-08-17T17:52:09.145Z,38.37
2022-08-17T17:54:39.307Z,38.02
2022-08-17T17:57:24.784Z,37.58
2022-08-17T18:00:12.932Z,38.87
2022-08-17T18:03:04.572Z,40.69
2022-08-17T18:05:44.454Z,40.18
2022-08-17T18:08:32.396Z,40.17
2022-08-17T18:11:14.516Z,38.97
2022-08-17T18:13:58.081Z,38.31
2022-08-17T18:16:28.445Z,38.36
2022-08-17T18:19:00.680Z,38.76
2022-08-17T18:21:44.520Z,38.85
2022-08-17T18:24:14.198Z,39.21
2022-08-17T18:26:59.483Z,39.25
2022-08-17T18:29:40.029Z,38.67
2022-08-17T18:32:18.678Z,38.79
2022-08-17T18:34:49.124Z,38.65
2022-08-17T18:37:43.237Z,40.04
2022-08-17T18:40:33.962Z,38.83
2022-08-17T18:43:44.438Z,39.93
2022-08-17T18:46:41.849Z,42.21
2022-08-17T18:49:19.121Z,44.77
2022-08-17T18:51:47.642Z,47.50
2022-08-17T18:54:20.284Z,47.85
2022-08-17T18:56:57.283Z,48.23
2022-08-17T18:59:45.650Z,48.38
2022-08-17T19:02:27.419Z,48.87
2022-08-17T19:05:11.093Z,49.15
2022-08-17T19:07:45.353Z,49.73
2022-08-17T19:10:28.856Z,49.60
2022-08-17T19:13:12.737Z,49.64
2022-08-17T19:16:11.641Z,49.58
2022-08-17T19:18:41.719Z,49.09
2022-08-17T19:21:16.430Z,49.15
2022-08-17T19:23:55.663Z,49.30
2022-08-17T19:26:54.075Z,49.14
2022-08-17T19:29:22.363Z,48.90
2022-08-17T19:31:50.508Z,48.82
2022-08-17T19:34:33.114Z,48.61
2022-08-17T19:37:13.794Z,48.60
2022-08-17T19:40:04.515Z,48.71
2022-08-17T19:42:51.170Z,48.23
2022-08-17T19:45:59.451Z,48.40
2022-08-17T19:48:46.087Z,48.50
2022-08-17T19:51:17.933Z,49.05
2022-08-17T19:54:04.737Z,48.91
2022-08-17T19:56:42.070Z,49.06
2022-08-17T19:59:27.073Z,49.98
2022-08-17T20:02:19.054Z,49.67
2022-08-17T20:04:50.614Z,49.71
2022-08-17T20:07:26.339Z,49.97
2022-08-17T20:10:08.196Z,49.96
2022-08-17T20:12:39.629Z,49.91
2022-08-17T20:15:13.037Z,49.90
2022-08-17T20:17:45.078Z,50.14
2022-08-17T20:20:32.260Z,50.00
2022-08-17T20:23:30.241Z,50.07
2022-08-17T20:26:07.383Z,49.92
2022-08-17T20:28:39.050Z,50.15
2022-08-17T20:31:41.416Z,50.36
2022-08-17T20:34:33.545Z,50.04
2022-08-17T20:37:14.445Z,50.15
2022-08-17T20:40:07.707Z,50.17
2022-08-17T20:42:37.360Z,50.19
2022-08-17T20:45:26.479Z,50.56
2022-08-17T20:48:35.036Z,50.74
2022-08-17T20:50:57.129Z,50.88
2022-08-17T20:53:47.195Z,50.88
2022-08-17T20:56:43.895Z,50.66
2022-08-17T20:59:22.067Z,50.90
2022-08-17T21:02:18.641Z,51.29
2022-08-17T21:04:50.262Z,51.39
2022-08-17T21:07:43.416Z,51.47
2022-08-17T21:10:35.676Z,51.68
2022-08-17T21:13:13.408Z,51.67
2022-08-17T21:15:41.894Z,51.98
2022-08-17T21:18:28.186Z,52.04
2022-08-17T21:21:24.467Z,51.83
2022-08-17T21:24:26.372Z,52.08
2022-08-17T21:27:10.137Z,52.37
2022-08-17T21:30:12.410Z,52.71
2022-08-17T21:32:43.257Z,52.92
2022-08-17T21:35:10.841Z,52.86
2022-08-17T21:37:48.262Z,53.57
2022-08-17T21:40:23.709Z,53.29
2022-08-17T21:42:55.611Z,53.52
2022-08-17T21:45:30.637Z,53.70
2022-08-17T21:48:19.731Z,54.01
2022-08-17T21:51:06.715Z,53.91
2022-08-17T21:53:46.550Z,53.92
2022-08-17T21:56:25.908Z,53.99
2022-08-17T21:58:59.510Z,54.19
2022-08-17T22:01:33.658Z,54.23
2022-08-17T22:04:26.256Z,54.23
2022-08-17T22:06:56.953Z,54.60
2022-08-17T22:09:30.067Z,54.26
2022-08-17T22:12:10.260Z,54.35
2022-08-17T22:14:52.301Z,54.18
2022-08-17T22:17:27.259Z,54.35
2022-08-17T22:20:17.379Z,54.17
2022-08-17T22:23:13.134Z,54.26
2022-08-17T22:26:00.183Z,54.40
2022-08-17T22:28:41.872Z,54.72
2022-08-17T22:31:16.177Z,54.30
2022-08-17T22:33:47.318Z,54.14
2022-08-17T22:36:29.144Z,54.08
2022-08-17T22:39:00.768Z,53.91
2022-08-17T22:41:37.935Z,54.05
2022-08-17T22:44:34.093Z,54.02
2022-08-17T22:47:11.561Z,54.18
2022-08-17T22:49:57.662Z,54.34
2022-08-17T22:53:04.101Z,54.30
2022-08-17T22:55:52.195Z,54.70
2022-08-17T22:58:42.749Z,54.08
2022-08-17T23:01:33.345Z,53.83
2022-08-17T23:04:08.582Z,54.35
2022-08-17T23:06:38.700Z,53.88
2022-08-17T23:09:07.177Z,53.92
2022-08-17T23:11:50.041Z,53.68
2022-08-17T23:14:20.509Z,53.55
2022-08-17T23:16:50.194Z,53.48
2022-08-17T23:19:21.470Z,53.63
2022-08-17T23:21:51.074Z,53.42
2022-08-17T23:24:21.474Z,53.50
2022-08-17T23:26:49.493Z,54.30
2022-08-17T23:29:17.301Z,53.48
2022-08-17T23:31:45.266Z,53.47
2022-08-17T23:34:15.133Z,53.37
2022-08-17T23:36:52.370Z,53.39
2022-08-17T23:39:27.587Z,53.26
2022-08-17T23:42:03.464Z,53.50
2022-08-17T23:44:32.777Z,53.72
2022-08-17T23:47:02.503Z,53.78
2022-08-17T23:49:31.805Z,53.84
2022-08-17T23:52:02.240Z,53.63
2022-08-17T23:54:48.550Z,53.52
2022-08-17T23:57:19.510Z,53.50
2022-08-17T23:59:47.370Z,53.46
